KR-0459 weather

Axel Towers Apartments Heliports
Busan, Busan Gwang'yeogsi, South Korea

Public forecast

Using degrees Celsius for public forecast. Weather courtesy of forecast.io.

Closest aviation weather report (METAR) to Axel Towers Apartments Heliports

Closest report is Gimhae International Airport, 8.6 nm (15.9 km) WNW. Retrieved 2020/07/11 14:00 UTC (3 minutes ago):

RKPK 111400Z 03008KT 9999 BKN050 23/18 Q1010

Closest aviation forecast (TAF) to Axel Towers Apartments Heliports

Closest forecast is Gimhae International Airport, 8.6 nm (15.9 km) WNW. Retrieved 2020/07/11 12:00 UTC (2 hours ago):

TAF RKPK 111100Z 1112/1218 06006KT 9999 BKN030 TN21/1121Z TX25/1206Z BECMG 1117/1118 4800 BR BKN015 BKN030 TEMPO 1200/1206 06008KT -RA BR BKN015 OVC030 BECMG 1206/1207 3200 -RA BR BKN010 OVC020